sensor_id;sensor_type;location;lat;lon;timestamp;P1;durP1;ratioP1;P2;durP2;ratioP2
4500;SDS011;2263;54.654;9.410;2022-09-14T00:01:14;6.93;;;2.20;;
4500;SDS011;2263;54.654;9.410;2022-09-14T00:03:57;7.47;;;1.90;;
4500;SDS011;2263;54.654;9.410;2022-09-14T00:06:36;6.47;;;1.60;;
4500;SDS011;2263;54.654;9.410;2022-09-14T00:09:04;6.10;;;2.03;;
4500;SDS011;2263;54.654;9.410;2022-09-14T00:11:33;6.40;;;1.97;;
4500;SDS011;2263;54.654;9.410;2022-09-14T00:14:01;5.50;;;1.37;;
4500;SDS011;2263;54.654;9.410;2022-09-14T00:16:32;4.83;;;2.40;;
4500;SDS011;2263;54.654;9.410;2022-09-14T00:19:03;2.43;;;1.33;;
4500;SDS011;2263;54.654;9.410;2022-09-14T00:21:33;5.00;;;1.60;;
4500;SDS011;2263;54.654;9.410;2022-09-14T00:24:04;7.20;;;1.97;;
4500;SDS011;2263;54.654;9.410;2022-09-14T00:26:35;6.97;;;2.47;;
4500;SDS011;2263;54.654;9.410;2022-09-14T00:29:03;6.70;;;1.37;;
4500;SDS011;2263;54.654;9.410;2022-09-14T00:31:31;6.80;;;2.40;;
4500;SDS011;2263;54.654;9.410;2022-09-14T00:34:04;5.90;;;1.73;;
4500;SDS011;2263;54.654;9.410;2022-09-14T00:36:36;5.67;;;1.93;;
4500;SDS011;2263;54.654;9.410;2022-09-14T00:39:05;6.73;;;2.40;;
4500;SDS011;2263;54.654;9.410;2022-09-14T00:41:36;4.70;;;1.73;;
4500;SDS011;2263;54.654;9.410;2022-09-14T00:46:39;6.70;;;2.60;;
4500;SDS011;2263;54.654;9.410;2022-09-14T00:49:09;7.10;;;2.07;;
4500;SDS011;2263;54.654;9.410;2022-09-14T00:51:48;8.13;;;2.33;;
4500;SDS011;2263;54.654;9.410;2022-09-14T00:54:41;5.50;;;2.07;;
4500;SDS011;2263;54.654;9.410;2022-09-14T00:57:14;5.60;;;3.27;;
4500;SDS011;2263;54.654;9.410;2022-09-14T00:59:43;9.17;;;2.23;;
4500;SDS011;2263;54.654;9.410;2022-09-14T01:02:11;13.77;;;2.50;;
4500;SDS011;2263;54.654;9.410;2022-09-14T01:04:42;4.70;;;2.50;;
4500;SDS011;2263;54.654;9.410;2022-09-14T01:18:43;3.73;;;2.17;;
4500;SDS011;2263;54.654;9.410;2022-09-14T01:21:25;10.90;;;4.00;;
4500;SDS011;2263;54.654;9.410;2022-09-14T01:33:13;12.80;;;1.70;;
4500;SDS011;2263;54.654;9.410;2022-09-14T01:35:34;7.03;;;2.30;;
4500;SDS011;2263;54.654;9.410;2022-09-14T01:38:29;9.20;;;1.80;;
4500;SDS011;2263;54.654;9.410;2022-09-14T01:41:00;3.80;;;2.27;;
4500;SDS011;2263;54.654;9.410;2022-09-14T01:43:38;5.33;;;2.53;;
4500;SDS011;2263;54.654;9.410;2022-09-14T01:46:13;4.53;;;2.10;;
4500;SDS011;2263;54.654;9.410;2022-09-14T01:51:45;4.10;;;1.73;;
4500;SDS011;2263;54.654;9.410;2022-09-14T01:54:32;4.00;;;2.07;;
4500;SDS011;2263;54.654;9.410;2022-09-14T01:59:35;6.60;;;2.50;;
4500;SDS011;2263;54.654;9.410;2022-09-14T02:02:16;4.07;;;1.70;;
4500;SDS011;2263;54.654;9.410;2022-09-14T02:07:28;5.43;;;2.00;;
4500;SDS011;2263;54.654;9.410;2022-09-14T02:09:55;11.00;;;2.97;;
4500;SDS011;2263;54.654;9.410;2022-09-14T02:12:22;3.30;;;1.90;;
4500;SDS011;2263;54.654;9.410;2022-09-14T02:14:50;9.23;;;2.30;;
4500;SDS011;2263;54.654;9.410;2022-09-14T02:17:19;9.80;;;2.20;;
4500;SDS011;2263;54.654;9.410;2022-09-14T02:19:54;5.07;;;1.70;;
4500;SDS011;2263;54.654;9.410;2022-09-14T02:22:27;4.50;;;1.73;;
4500;SDS011;2263;54.654;9.410;2022-09-14T02:24:54;4.70;;;2.50;;
4500;SDS011;2263;54.654;9.410;2022-09-14T02:27:23;6.37;;;1.87;;
4500;SDS011;2263;54.654;9.410;2022-09-14T02:29:50;3.80;;;1.90;;
4500;SDS011;2263;54.654;9.410;2022-09-14T02:35:16;2.80;;;1.63;;
4500;SDS011;2263;54.654;9.410;2022-09-14T02:55:25;4.63;;;2.33;;
4500;SDS011;2263;54.654;9.410;2022-09-14T02:57:30;6.37;;;2.00;;
4500;SDS011;2263;54.654;9.410;2022-09-14T02:59:57;5.13;;;1.73;;
4500;SDS011;2263;54.654;9.410;2022-09-14T03:02:24;2.47;;;1.87;;
4500;SDS011;2263;54.654;9.410;2022-09-14T03:04:51;4.90;;;2.60;;
4500;SDS011;2263;54.654;9.410;2022-09-14T03:07:18;6.17;;;1.40;;
4500;SDS011;2263;54.654;9.410;2022-09-14T03:09:45;3.33;;;1.90;;
4500;SDS011;2263;54.654;9.410;2022-09-14T03:12:12;7.43;;;2.13;;
4500;SDS011;2263;54.654;9.410;2022-09-14T03:14:40;5.20;;;1.37;;
4500;SDS011;2263;54.654;9.410;2022-09-14T03:17:07;3.43;;;1.83;;
4500;SDS011;2263;54.654;9.410;2022-09-14T03:19:34;2.07;;;1.10;;
4500;SDS011;2263;54.654;9.410;2022-09-14T03:22:01;5.70;;;1.53;;
4500;SDS011;2263;54.654;9.410;2022-09-14T03:24:28;6.90;;;1.63;;
4500;SDS011;2263;54.654;9.410;2022-09-14T03:26:55;4.73;;;2.13;;
4500;SDS011;2263;54.654;9.410;2022-09-14T03:29:22;2.40;;;1.20;;
4500;SDS011;2263;54.654;9.410;2022-09-14T03:31:49;5.03;;;1.70;;
4500;SDS011;2263;54.654;9.410;2022-09-14T03:34:16;3.13;;;1.50;;
4500;SDS011;2263;54.654;9.410;2022-09-14T03:36:43;4.83;;;1.90;;
4500;SDS011;2263;54.654;9.410;2022-09-14T03:39:10;4.53;;;1.67;;
4500;SDS011;2263;54.654;9.410;2022-09-14T03:41:37;3.23;;;1.67;;
4500;SDS011;2263;54.654;9.410;2022-09-14T03:44:05;5.53;;;1.90;;
4500;SDS011;2263;54.654;9.410;2022-09-14T03:46:32;6.93;;;2.73;;
4500;SDS011;2263;54.654;9.410;2022-09-14T03:48:59;5.20;;;1.30;;
4500;SDS011;2263;54.654;9.410;2022-09-14T03:51:26;4.10;;;1.83;;
4500;SDS011;2263;54.654;9.410;2022-09-14T03:53:54;4.00;;;1.63;;
4500;SDS011;2263;54.654;9.410;2022-09-14T03:56:21;1.80;;;1.13;;
4500;SDS011;2263;54.654;9.410;2022-09-14T03:58:51;6.17;;;1.27;;
4500;SDS011;2263;54.654;9.410;2022-09-14T04:01:19;8.57;;;1.63;;
4500;SDS011;2263;54.654;9.410;2022-09-14T04:03:47;4.23;;;1.60;;
4500;SDS011;2263;54.654;9.410;2022-09-14T04:06:16;9.37;;;1.90;;
4500;SDS011;2263;54.654;9.410;2022-09-14T04:08:45;5.60;;;1.70;;
4500;SDS011;2263;54.654;9.410;2022-09-14T04:11:16;3.00;;;1.27;;
4500;SDS011;2263;54.654;9.410;2022-09-14T04:13:49;7.93;;;1.40;;
4500;SDS011;2263;54.654;9.410;2022-09-14T04:16:17;6.80;;;1.23;;
4500;SDS011;2263;54.654;9.410;2022-09-14T04:18:48;1.53;;;1.20;;
4500;SDS011;2263;54.654;9.410;2022-09-14T04:21:16;4.03;;;1.77;;
4500;SDS011;2263;54.654;9.410;2022-09-14T04:23:45;1.60;;;0.90;;
4500;SDS011;2263;54.654;9.410;2022-09-14T04:26:33;12.20;;;1.40;;
4500;SDS011;2263;54.654;9.410;2022-09-14T04:29:00;8.80;;;1.50;;
4500;SDS011;2263;54.654;9.410;2022-09-14T04:31:27;4.17;;;1.30;;
4500;SDS011;2263;54.654;9.410;2022-09-14T04:33:54;3.53;;;1.00;;
4500;SDS011;2263;54.654;9.410;2022-09-14T04:36:24;5.83;;;1.43;;
4500;SDS011;2263;54.654;9.410;2022-09-14T04:38:55;5.27;;;3.20;;
4500;SDS011;2263;54.654;9.410;2022-09-14T04:41:24;5.93;;;1.77;;
4500;SDS011;2263;54.654;9.410;2022-09-14T04:43:53;4.37;;;1.53;;
4500;SDS011;2263;54.654;9.410;2022-09-14T04:46:28;2.67;;;1.30;;
4500;SDS011;2263;54.654;9.410;2022-09-14T04:48:56;5.50;;;2.00;;
4500;SDS011;2263;54.654;9.410;2022-09-14T04:51:25;4.13;;;1.70;;
4500;SDS011;2263;54.654;9.410;2022-09-14T04:53:54;3.27;;;2.10;;
4500;SDS011;2263;54.654;9.410;2022-09-14T04:56:24;4.90;;;1.83;;
4500;SDS011;2263;54.654;9.410;2022-09-14T04:58:54;2.90;;;1.87;;
4500;SDS011;2263;54.654;9.410;2022-09-14T05:01:27;2.80;;;1.50;;
4500;SDS011;2263;54.654;9.410;2022-09-14T05:03:56;9.57;;;2.00;;
4500;SDS011;2263;54.654;9.410;2022-09-14T05:06:26;3.87;;;1.20;;
4500;SDS011;2263;54.654;9.410;2022-09-14T05:08:56;4.97;;;1.47;;
4500;SDS011;2263;54.654;9.410;2022-09-14T05:11:26;4.37;;;1.30;;
4500;SDS011;2263;54.654;9.410;2022-09-14T05:13:56;6.63;;;1.40;;
4500;SDS011;2263;54.654;9.410;2022-09-14T05:16:27;3.10;;;1.23;;
4500;SDS011;2263;54.654;9.410;2022-09-14T05:18:57;2.00;;;1.03;;
4500;SDS011;2263;54.654;9.410;2022-09-14T05:21:30;2.13;;;1.07;;
4500;SDS011;2263;54.654;9.410;2022-09-14T05:23:59;3.77;;;1.53;;
4500;SDS011;2263;54.654;9.410;2022-09-14T05:26:32;2.30;;;1.17;;
4500;SDS011;2263;54.654;9.410;2022-09-14T05:29:00;1.70;;;0.87;;
4500;SDS011;2263;54.654;9.410;2022-09-14T05:31:28;2.90;;;1.00;;
4500;SDS011;2263;54.654;9.410;2022-09-14T05:33:56;3.20;;;1.30;;
4500;SDS011;2263;54.654;9.410;2022-09-14T05:36:24;1.87;;;1.00;;
4500;SDS011;2263;54.654;9.410;2022-09-14T05:38:51;1.90;;;1.13;;
4500;SDS011;2263;54.654;9.410;2022-09-14T05:41:18;2.70;;;1.07;;
4500;SDS011;2263;54.654;9.410;2022-09-14T05:43:46;4.07;;;1.40;;
4500;SDS011;2263;54.654;9.410;2022-09-14T05:46:14;3.67;;;1.10;;
4500;SDS011;2263;54.654;9.410;2022-09-14T05:48:43;4.43;;;1.53;;
4500;SDS011;2263;54.654;9.410;2022-09-14T05:51:11;6.70;;;1.73;;
4500;SDS011;2263;54.654;9.410;2022-09-14T05:53:41;2.33;;;1.10;;
4500;SDS011;2263;54.654;9.410;2022-09-14T05:56:12;5.73;;;1.10;;
4500;SDS011;2263;54.654;9.410;2022-09-14T05:58:40;5.33;;;1.20;;
4500;SDS011;2263;54.654;9.410;2022-09-14T06:01:09;3.73;;;1.40;;
4500;SDS011;2263;54.654;9.410;2022-09-14T06:03:37;2.90;;;1.13;;
4500;SDS011;2263;54.654;9.410;2022-09-14T06:06:06;1.90;;;1.50;;
4500;SDS011;2263;54.654;9.410;2022-09-14T06:08:35;6.07;;;3.70;;
4500;SDS011;2263;54.654;9.410;2022-09-14T06:11:13;9.40;;;8.60;;
4500;SDS011;2263;54.654;9.410;2022-09-14T06:13:42;20.77;;;18.70;;
4500;SDS011;2263;54.654;9.410;2022-09-14T06:16:10;14.37;;;13.20;;
4500;SDS011;2263;54.654;9.410;2022-09-14T06:18:39;15.67;;;14.03;;
4500;SDS011;2263;54.654;9.410;2022-09-14T06:21:08;13.10;;;11.23;;
4500;SDS011;2263;54.654;9.410;2022-09-14T06:23:37;9.93;;;9.13;;
4500;SDS011;2263;54.654;9.410;2022-09-14T06:26:04;13.37;;;9.83;;
4500;SDS011;2263;54.654;9.410;2022-09-14T06:28:33;10.87;;;9.73;;
4500;SDS011;2263;54.654;9.410;2022-09-14T06:31:01;10.77;;;9.20;;
4500;SDS011;2263;54.654;9.410;2022-09-14T06:33:30;9.43;;;7.40;;
4500;SDS011;2263;54.654;9.410;2022-09-14T06:35:58;13.00;;;9.83;;
4500;SDS011;2263;54.654;9.410;2022-09-14T06:38:27;7.40;;;6.90;;
4500;SDS011;2263;54.654;9.410;2022-09-14T06:43:23;6.67;;;5.93;;
4500;SDS011;2263;54.654;9.410;2022-09-14T06:46:05;7.23;;;6.10;;
4500;SDS011;2263;54.654;9.410;2022-09-14T06:49:13;8.53;;;6.37;;
4500;SDS011;2263;54.654;9.410;2022-09-14T06:51:43;5.43;;;4.93;;
4500;SDS011;2263;54.654;9.410;2022-09-14T06:54:12;6.00;;;5.50;;
4500;SDS011;2263;54.654;9.410;2022-09-14T06:56:44;8.43;;;5.40;;
4500;SDS011;2263;54.654;9.410;2022-09-14T06:59:13;4.13;;;3.83;;
4500;SDS011;2263;54.654;9.410;2022-09-14T07:01:42;4.93;;;4.03;;
4500;SDS011;2263;54.654;9.410;2022-09-14T07:04:11;5.20;;;4.47;;
4500;SDS011;2263;54.654;9.410;2022-09-14T07:09:14;4.47;;;3.90;;
4500;SDS011;2263;54.654;9.410;2022-09-14T07:11:42;4.57;;;3.67;;
4500;SDS011;2263;54.654;9.410;2022-09-14T07:14:09;3.63;;;2.90;;
4500;SDS011;2263;54.654;9.410;2022-09-14T07:16:38;4.83;;;3.23;;
4500;SDS011;2263;54.654;9.410;2022-09-14T07:19:08;3.73;;;2.90;;
4500;SDS011;2263;54.654;9.410;2022-09-14T07:21:37;3.43;;;2.67;;
4500;SDS011;2263;54.654;9.410;2022-09-14T07:24:04;4.90;;;3.57;;
4500;SDS011;2263;54.654;9.410;2022-09-14T07:26:38;3.50;;;3.20;;
4500;SDS011;2263;54.654;9.410;2022-09-14T07:29:15;4.80;;;3.63;;
4500;SDS011;2263;54.654;9.410;2022-09-14T07:31:44;7.13;;;3.43;;
4500;SDS011;2263;54.654;9.410;2022-09-14T07:34:14;5.30;;;2.93;;
4500;SDS011;2263;54.654;9.410;2022-09-14T07:36:42;3.37;;;2.90;;
4500;SDS011;2263;54.654;9.410;2022-09-14T07:39:10;6.53;;;2.23;;
4500;SDS011;2263;54.654;9.410;2022-09-14T07:41:39;4.50;;;2.17;;
4500;SDS011;2263;54.654;9.410;2022-09-14T07:44:07;3.70;;;2.53;;
4500;SDS011;2263;54.654;9.410;2022-09-14T07:46:36;7.10;;;2.20;;
4500;SDS011;2263;54.654;9.410;2022-09-14T07:49:07;6.67;;;2.30;;
4500;SDS011;2263;54.654;9.410;2022-09-14T07:51:35;2.80;;;2.20;;
4500;SDS011;2263;54.654;9.410;2022-09-14T07:54:03;5.20;;;2.70;;
4500;SDS011;2263;54.654;9.410;2022-09-14T07:56:31;8.00;;;2.17;;
4500;SDS011;2263;54.654;9.410;2022-09-14T07:59:01;4.07;;;2.13;;
4500;SDS011;2263;54.654;9.410;2022-09-14T08:01:49;2.30;;;1.80;;
4500;SDS011;2263;54.654;9.410;2022-09-14T08:04:17;6.10;;;2.60;;
4500;SDS011;2263;54.654;9.410;2022-09-14T08:06:47;3.60;;;1.83;;
4500;SDS011;2263;54.654;9.410;2022-09-14T08:09:14;7.23;;;2.47;;
4500;SDS011;2263;54.654;9.410;2022-09-14T08:11:41;4.37;;;2.00;;
4500;SDS011;2263;54.654;9.410;2022-09-14T08:14:09;2.30;;;1.73;;
4500;SDS011;2263;54.654;9.410;2022-09-14T08:16:37;2.17;;;1.97;;
4500;SDS011;2263;54.654;9.410;2022-09-14T08:19:11;4.90;;;1.67;;
4500;SDS011;2263;54.654;9.410;2022-09-14T08:21:44;3.03;;;1.77;;
4500;SDS011;2263;54.654;9.410;2022-09-14T08:24:15;9.20;;;2.30;;
4500;SDS011;2263;54.654;9.410;2022-09-14T08:26:44;2.93;;;1.50;;
4500;SDS011;2263;54.654;9.410;2022-09-14T08:29:12;6.97;;;1.90;;
4500;SDS011;2263;54.654;9.410;2022-09-14T08:31:43;7.60;;;1.83;;
4500;SDS011;2263;54.654;9.410;2022-09-14T08:34:13;3.27;;;1.80;;
4500;SDS011;2263;54.654;9.410;2022-09-14T08:36:42;3.57;;;1.40;;
4500;SDS011;2263;54.654;9.410;2022-09-14T08:39:10;4.20;;;1.90;;
4500;SDS011;2263;54.654;9.410;2022-09-14T08:46:47;3.53;;;1.10;;
4500;SDS011;2263;54.654;9.410;2022-09-14T08:52:10;2.87;;;1.13;;
4500;SDS011;2263;54.654;9.410;2022-09-14T08:54:59;2.63;;;1.33;;
4500;SDS011;2263;54.654;9.410;2022-09-14T08:58:19;5.37;;;2.40;;
4500;SDS011;2263;54.654;9.410;2022-09-14T09:06:53;11.37;;;6.27;;
4500;SDS011;2263;54.654;9.410;2022-09-14T09:12:04;7.60;;;3.70;;
4500;SDS011;2263;54.654;9.410;2022-09-14T09:17:11;7.80;;;3.10;;
4500;SDS011;2263;54.654;9.410;2022-09-14T09:22:53;4.60;;;2.50;;
4500;SDS011;2263;54.654;9.410;2022-09-14T09:28:21;5.30;;;2.27;;
4500;SDS011;2263;54.654;9.410;2022-09-14T09:30:51;4.43;;;1.97;;
4500;SDS011;2263;54.654;9.410;2022-09-14T09:33:23;2.70;;;1.57;;
4500;SDS011;2263;54.654;9.410;2022-09-14T09:35:52;2.43;;;1.20;;
4500;SDS011;2263;54.654;9.410;2022-09-14T09:38:23;4.10;;;2.83;;
4500;SDS011;2263;54.654;9.410;2022-09-14T09:40:54;7.00;;;2.23;;
4500;SDS011;2263;54.654;9.410;2022-09-14T09:43:30;3.10;;;1.83;;
4500;SDS011;2263;54.654;9.410;2022-09-14T09:46:15;3.97;;;1.43;;
4500;SDS011;2263;54.654;9.410;2022-09-14T09:48:46;2.60;;;1.23;;
4500;SDS011;2263;54.654;9.410;2022-09-14T09:51:24;3.50;;;1.90;;
4500;SDS011;2263;54.654;9.410;2022-09-14T09:56:28;4.20;;;1.90;;
4500;SDS011;2263;54.654;9.410;2022-09-14T09:59:01;3.00;;;1.60;;
4500;SDS011;2263;54.654;9.410;2022-09-14T10:01:33;3.97;;;2.47;;
4500;SDS011;2263;54.654;9.410;2022-09-14T10:04:05;3.53;;;1.70;;
4500;SDS011;2263;54.654;9.410;2022-09-14T10:06:40;4.40;;;1.97;;
4500;SDS011;2263;54.654;9.410;2022-09-14T10:09:19;2.47;;;1.90;;
4500;SDS011;2263;54.654;9.410;2022-09-14T10:11:55;3.27;;;1.43;;
4500;SDS011;2263;54.654;9.410;2022-09-14T10:14:28;7.17;;;2.00;;
4500;SDS011;2263;54.654;9.410;2022-09-14T10:17:05;4.83;;;1.97;;
4500;SDS011;2263;54.654;9.410;2022-09-14T10:19:49;3.27;;;2.37;;
4500;SDS011;2263;54.654;9.410;2022-09-14T10:22:28;2.83;;;1.83;;
4500;SDS011;2263;54.654;9.410;2022-09-14T10:25:00;2.80;;;1.07;;
4500;SDS011;2263;54.654;9.410;2022-09-14T10:30:22;7.23;;;1.50;;
4500;SDS011;2263;54.654;9.410;2022-09-14T10:32:58;4.07;;;1.60;;
4500;SDS011;2263;54.654;9.410;2022-09-14T10:35:31;7.90;;;2.33;;
4500;SDS011;2263;54.654;9.410;2022-09-14T10:41:56;3.33;;;2.40;;
4500;SDS011;2263;54.654;9.410;2022-09-14T10:46:58;2.97;;;2.53;;
4500;SDS011;2263;54.654;9.410;2022-09-14T10:52:55;1.83;;;1.10;;
4500;SDS011;2263;54.654;9.410;2022-09-14T11:09:16;1.90;;;1.20;;
4500;SDS011;2263;54.654;9.410;2022-09-14T11:15:16;4.03;;;2.50;;
4500;SDS011;2263;54.654;9.410;2022-09-14T11:17:43;1.43;;;0.80;;
4500;SDS011;2263;54.654;9.410;2022-09-14T11:25:52;1.77;;;0.70;;
4500;SDS011;2263;54.654;9.410;2022-09-14T11:28:28;2.23;;;0.90;;
4500;SDS011;2263;54.654;9.410;2022-09-14T11:31:01;4.57;;;0.90;;
4500;SDS011;2263;54.654;9.410;2022-09-14T11:33:39;2.50;;;0.80;;
4500;SDS011;2263;54.654;9.410;2022-09-14T11:36:22;2.07;;;0.77;;
4500;SDS011;2263;54.654;9.410;2022-09-14T11:39:21;3.23;;;0.97;;
4500;SDS011;2263;54.654;9.410;2022-09-14T11:41:58;1.43;;;0.80;;
4500;SDS011;2263;54.654;9.410;2022-09-14T11:44:27;3.00;;;1.93;;
4500;SDS011;2263;54.654;9.410;2022-09-14T11:47:08;3.10;;;1.40;;
4500;SDS011;2263;54.654;9.410;2022-09-14T11:52:28;2.63;;;2.43;;
4500;SDS011;2263;54.654;9.410;2022-09-14T11:54:57;2.83;;;1.67;;
4500;SDS011;2263;54.654;9.410;2022-09-14T11:57:26;1.73;;;1.50;;
4500;SDS011;2263;54.654;9.410;2022-09-14T12:00:40;2.00;;;1.67;;
4500;SDS011;2263;54.654;9.410;2022-09-14T12:03:12;2.73;;;2.53;;
4500;SDS011;2263;54.654;9.410;2022-09-14T12:05:42;6.90;;;3.00;;
4500;SDS011;2263;54.654;9.410;2022-09-14T12:08:55;3.90;;;3.60;;
4500;SDS011;2263;54.654;9.410;2022-09-14T12:13:33;2.70;;;1.60;;
4500;SDS011;2263;54.654;9.410;2022-09-14T12:16:05;2.20;;;1.23;;
4500;SDS011;2263;54.654;9.410;2022-09-14T12:18:35;2.90;;;1.20;;
4500;SDS011;2263;54.654;9.410;2022-09-14T12:21:04;1.57;;;1.37;;
4500;SDS011;2263;54.654;9.410;2022-09-14T12:23:42;2.10;;;1.20;;
4500;SDS011;2263;54.654;9.410;2022-09-14T12:28:49;4.63;;;2.30;;
4500;SDS011;2263;54.654;9.410;2022-09-14T12:34:15;1.87;;;1.20;;
4500;SDS011;2263;54.654;9.410;2022-09-14T12:44:31;1.93;;;0.80;;
4500;SDS011;2263;54.654;9.410;2022-09-14T12:49:50;2.27;;;1.07;;
4500;SDS011;2263;54.654;9.410;2022-09-14T12:52:24;1.40;;;0.87;;
4500;SDS011;2263;54.654;9.410;2022-09-14T12:54:58;3.00;;;1.40;;
4500;SDS011;2263;54.654;9.410;2022-09-14T12:57:54;1.20;;;0.63;;
4500;SDS011;2263;54.654;9.410;2022-09-14T13:00:52;1.97;;;0.70;;
4500;SDS011;2263;54.654;9.410;2022-09-14T13:03:59;1.83;;;0.93;;
4500;SDS011;2263;54.654;9.410;2022-09-14T13:06:20;1.40;;;0.80;;
4500;SDS011;2263;54.654;9.410;2022-09-14T13:08:50;2.23;;;0.60;;
4500;SDS011;2263;54.654;9.410;2022-09-14T13:11:21;1.87;;;0.70;;
4500;SDS011;2263;54.654;9.410;2022-09-14T13:13:57;2.30;;;0.87;;
4500;SDS011;2263;54.654;9.410;2022-09-14T13:16:31;2.73;;;0.70;;
4500;SDS011;2263;54.654;9.410;2022-09-14T13:19:01;3.03;;;0.77;;
4500;SDS011;2263;54.654;9.410;2022-09-14T13:21:30;1.50;;;0.83;;
4500;SDS011;2263;54.654;9.410;2022-09-14T13:23:57;1.23;;;1.07;;
4500;SDS011;2263;54.654;9.410;2022-09-14T13:26:26;1.40;;;0.60;;
4500;SDS011;2263;54.654;9.410;2022-09-14T13:28:55;5.17;;;2.23;;
4500;SDS011;2263;54.654;9.410;2022-09-14T13:31:34;1.10;;;0.70;;
4500;SDS011;2263;54.654;9.410;2022-09-14T13:34:04;3.00;;;1.07;;
4500;SDS011;2263;54.654;9.410;2022-09-14T13:36:33;1.93;;;0.90;;
4500;SDS011;2263;54.654;9.410;2022-09-14T13:39:09;1.10;;;0.60;;
4500;SDS011;2263;54.654;9.410;2022-09-14T13:41:49;3.53;;;0.80;;
4500;SDS011;2263;54.654;9.410;2022-09-14T13:44:17;1.10;;;0.50;;
4500;SDS011;2263;54.654;9.410;2022-09-14T13:46:48;1.30;;;0.60;;
4500;SDS011;2263;54.654;9.410;2022-09-14T13:49:15;1.20;;;0.60;;
4500;SDS011;2263;54.654;9.410;2022-09-14T13:51:46;1.27;;;0.83;;
4500;SDS011;2263;54.654;9.410;2022-09-14T13:57:10;2.20;;;0.80;;
4500;SDS011;2263;54.654;9.410;2022-09-14T14:02:59;1.00;;;0.50;;
4500;SDS011;2263;54.654;9.410;2022-09-14T14:08:00;1.10;;;0.50;;
4500;SDS011;2263;54.654;9.410;2022-09-14T14:10:35;1.30;;;0.70;;
4500;SDS011;2263;54.654;9.410;2022-09-14T14:13:05;1.10;;;0.50;;
4500;SDS011;2263;54.654;9.410;2022-09-14T14:15:41;1.07;;;0.50;;
4500;SDS011;2263;54.654;9.410;2022-09-14T14:26:52;1.67;;;0.70;;
4500;SDS011;2263;54.654;9.410;2022-09-14T14:29:21;1.30;;;0.60;;
4500;SDS011;2263;54.654;9.410;2022-09-14T14:31:53;1.20;;;0.70;;
4500;SDS011;2263;54.654;9.410;2022-09-14T14:34:22;3.20;;;0.63;;
4500;SDS011;2263;54.654;9.410;2022-09-14T14:36:52;1.40;;;0.80;;
4500;SDS011;2263;54.654;9.410;2022-09-14T14:39:23;1.93;;;0.57;;
4500;SDS011;2263;54.654;9.410;2022-09-14T14:41:52;3.00;;;0.60;;
4500;SDS011;2263;54.654;9.410;2022-09-14T14:44:24;1.30;;;0.77;;
4500;SDS011;2263;54.654;9.410;2022-09-14T14:46:54;1.67;;;0.73;;
4500;SDS011;2263;54.654;9.410;2022-09-14T14:49:25;1.73;;;0.60;;
4500;SDS011;2263;54.654;9.410;2022-09-14T14:51:52;2.03;;;1.83;;
4500;SDS011;2263;54.654;9.410;2022-09-14T14:54:19;2.23;;;0.70;;
4500;SDS011;2263;54.654;9.410;2022-09-14T14:56:47;1.97;;;0.60;;
4500;SDS011;2263;54.654;9.410;2022-09-14T15:01:46;2.07;;;0.80;;
4500;SDS011;2263;54.654;9.410;2022-09-14T15:04:14;2.90;;;0.90;;
4500;SDS011;2263;54.654;9.410;2022-09-14T15:06:41;2.20;;;0.60;;
4500;SDS011;2263;54.654;9.410;2022-09-14T15:09:09;2.03;;;0.80;;
4500;SDS011;2263;54.654;9.410;2022-09-14T15:11:40;3.03;;;0.60;;
4500;SDS011;2263;54.654;9.410;2022-09-14T15:14:10;2.63;;;0.80;;
4500;SDS011;2263;54.654;9.410;2022-09-14T15:16:39;1.23;;;0.70;;
4500;SDS011;2263;54.654;9.410;2022-09-14T15:19:06;1.50;;;0.80;;
4500;SDS011;2263;54.654;9.410;2022-09-14T15:21:36;3.10;;;0.70;;
4500;SDS011;2263;54.654;9.410;2022-09-14T15:24:04;1.90;;;0.83;;
4500;SDS011;2263;54.654;9.410;2022-09-14T15:26:32;2.30;;;0.70;;
4500;SDS011;2263;54.654;9.410;2022-09-14T15:29:00;2.60;;;0.60;;
4500;SDS011;2263;54.654;9.410;2022-09-14T15:31:27;1.73;;;0.60;;
4500;SDS011;2263;54.654;9.410;2022-09-14T15:33:55;1.83;;;1.10;;
4500;SDS011;2263;54.654;9.410;2022-09-14T15:39:10;1.40;;;0.67;;
4500;SDS011;2263;54.654;9.410;2022-09-14T15:41:39;2.00;;;0.60;;
4500;SDS011;2263;54.654;9.410;2022-09-14T15:44:06;1.83;;;0.83;;
4500;SDS011;2263;54.654;9.410;2022-09-14T15:46:34;1.10;;;0.67;;
4500;SDS011;2263;54.654;9.410;2022-09-14T15:49:05;2.70;;;0.90;;
4500;SDS011;2263;54.654;9.410;2022-09-14T15:51:44;1.30;;;0.60;;
4500;SDS011;2263;54.654;9.410;2022-09-14T15:54:12;1.03;;;0.53;;
4500;SDS011;2263;54.654;9.410;2022-09-14T15:56:40;3.70;;;0.60;;
4500;SDS011;2263;54.654;9.410;2022-09-14T15:59:07;1.30;;;0.70;;
4500;SDS011;2263;54.654;9.410;2022-09-14T16:01:34;1.20;;;0.60;;
4500;SDS011;2263;54.654;9.410;2022-09-14T16:04:03;2.50;;;2.00;;
4500;SDS011;2263;54.654;9.410;2022-09-14T16:06:37;1.20;;;0.87;;
4500;SDS011;2263;54.654;9.410;2022-09-14T16:09:05;2.67;;;0.60;;
4500;SDS011;2263;54.654;9.410;2022-09-14T16:11:34;1.63;;;0.60;;
4500;SDS011;2263;54.654;9.410;2022-09-14T16:14:02;2.27;;;0.87;;
4500;SDS011;2263;54.654;9.410;2022-09-14T16:16:33;1.00;;;0.50;;
4500;SDS011;2263;54.654;9.410;2022-09-14T16:19:05;2.50;;;0.70;;
4500;SDS011;2263;54.654;9.410;2022-09-14T16:21:34;1.20;;;0.50;;
4500;SDS011;2263;54.654;9.410;2022-09-14T16:24:02;1.60;;;0.60;;
4500;SDS011;2263;54.654;9.410;2022-09-14T16:26:33;1.30;;;0.60;;
4500;SDS011;2263;54.654;9.410;2022-09-14T16:29:01;2.20;;;0.60;;
4500;SDS011;2263;54.654;9.410;2022-09-14T16:31:35;4.83;;;0.60;;
4500;SDS011;2263;54.654;9.410;2022-09-14T16:34:04;2.60;;;0.73;;
4500;SDS011;2263;54.654;9.410;2022-09-14T16:36:35;2.13;;;1.00;;
4500;SDS011;2263;54.654;9.410;2022-09-14T16:39:04;1.40;;;0.70;;
4500;SDS011;2263;54.654;9.410;2022-09-14T16:41:35;1.30;;;0.80;;
4500;SDS011;2263;54.654;9.410;2022-09-14T16:44:03;2.03;;;0.60;;
4500;SDS011;2263;54.654;9.410;2022-09-14T16:46:32;1.40;;;0.60;;
4500;SDS011;2263;54.654;9.410;2022-09-14T16:49:00;1.40;;;0.90;;
4500;SDS011;2263;54.654;9.410;2022-09-14T16:51:28;4.20;;;0.50;;
4500;SDS011;2263;54.654;9.410;2022-09-14T16:53:56;4.17;;;1.00;;
4500;SDS011;2263;54.654;9.410;2022-09-14T16:56:26;1.43;;;0.70;;
4500;SDS011;2263;54.654;9.410;2022-09-14T16:58:57;1.13;;;0.60;;
4500;SDS011;2263;54.654;9.410;2022-09-14T17:01:27;1.93;;;0.70;;
4500;SDS011;2263;54.654;9.410;2022-09-14T17:04:01;1.30;;;0.70;;
4500;SDS011;2263;54.654;9.410;2022-09-14T17:06:34;1.37;;;0.80;;
4500;SDS011;2263;54.654;9.410;2022-09-14T17:09:06;1.50;;;0.90;;
4500;SDS011;2263;54.654;9.410;2022-09-14T17:11:35;1.67;;;0.97;;
4500;SDS011;2263;54.654;9.410;2022-09-14T17:14:04;2.40;;;0.90;;
4500;SDS011;2263;54.654;9.410;2022-09-14T17:16:31;2.63;;;0.70;;
4500;SDS011;2263;54.654;9.410;2022-09-14T17:19:00;1.20;;;0.80;;
4500;SDS011;2263;54.654;9.410;2022-09-14T17:21:30;1.90;;;1.03;;
4500;SDS011;2263;54.654;9.410;2022-09-14T17:23:59;1.23;;;0.70;;
4500;SDS011;2263;54.654;9.410;2022-09-14T17:26:27;1.77;;;0.97;;
4500;SDS011;2263;54.654;9.410;2022-09-14T17:28:58;1.83;;;0.90;;
4500;SDS011;2263;54.654;9.410;2022-09-14T17:31:28;3.63;;;0.80;;
4500;SDS011;2263;54.654;9.410;2022-09-14T17:33:58;3.00;;;0.67;;
4500;SDS011;2263;54.654;9.410;2022-09-14T17:36:26;1.10;;;0.70;;
4500;SDS011;2263;54.654;9.410;2022-09-14T17:38:57;1.40;;;0.80;;
4500;SDS011;2263;54.654;9.410;2022-09-14T17:41:28;2.03;;;1.00;;
4500;SDS011;2263;54.654;9.410;2022-09-14T17:43:58;1.73;;;1.03;;
4500;SDS011;2263;54.654;9.410;2022-09-14T17:46:27;3.20;;;0.70;;
4500;SDS011;2263;54.654;9.410;2022-09-14T17:48:56;2.57;;;0.73;;
4500;SDS011;2263;54.654;9.410;2022-09-14T17:51:25;1.70;;;0.80;;
4500;SDS011;2263;54.654;9.410;2022-09-14T17:53:54;3.27;;;1.23;;
4500;SDS011;2263;54.654;9.410;2022-09-14T17:56:23;1.80;;;1.17;;
4500;SDS011;2263;54.654;9.410;2022-09-14T17:59:05;2.00;;;0.97;;
4500;SDS011;2263;54.654;9.410;2022-09-14T18:01:35;4.70;;;1.43;;
4500;SDS011;2263;54.654;9.410;2022-09-14T18:04:08;4.53;;;1.10;;
4500;SDS011;2263;54.654;9.410;2022-09-14T18:06:37;2.10;;;0.93;;
4500;SDS011;2263;54.654;9.410;2022-09-14T18:09:08;3.63;;;1.10;;
4500;SDS011;2263;54.654;9.410;2022-09-14T18:11:39;2.37;;;1.30;;
4500;SDS011;2263;54.654;9.410;2022-09-14T18:14:06;4.13;;;0.97;;
4500;SDS011;2263;54.654;9.410;2022-09-14T18:16:38;1.67;;;1.00;;
4500;SDS011;2263;54.654;9.410;2022-09-14T18:19:06;2.50;;;1.27;;
4500;SDS011;2263;54.654;9.410;2022-09-14T18:21:33;2.50;;;0.90;;
4500;SDS011;2263;54.654;9.410;2022-09-14T18:24:01;6.30;;;1.30;;